Time;durP1;ratioP1;P1;durP2;ratioP2;P2;SDS_P1;SDS_P2;PMS_P1;PMS_P2;Temp;Humidity;BMP_temperature;BMP_pressure;BME280_temperature;BME280_humidity;BME280_pressure;Samples;Min_cycle;Max_cycle;Signal;HPM_P1;HPM_P2
2022/08/05 00:01:48;;;;;;;4.97;2.50;;;18.30;99.90;;;;;;5033270;28;20048;-78
2022/08/05 00:04:16;;;;;;;4.47;2.10;;;18.20;99.90;;;;;;5032466;28;20067;-77
2022/08/05 00:06:41;;;;;;;5.05;2.35;;;18.20;99.90;;;;;;5035608;28;20049;-77
2022/08/05 00:09:07;;;;;;;4.57;1.90;;;18.20;99.90;;;;;;5036872;28;20099;-77
2022/08/05 00:11:33;;;;;;;7.13;2.42;;;18.30;99.90;;;;;;5035610;28;20045;-77
2022/08/05 00:13:58;;;;;;;6.03;2.08;;;18.30;99.90;;;;;;5035514;28;20052;-78
2022/08/05 00:16:24;;;;;;;4.78;2.42;;;18.30;99.90;;;;;;5035366;28;20087;-78
2022/08/05 00:18:49;;;;;;;6.38;2.25;;;18.30;99.90;;;;;;5035311;28;20049;-77
2022/08/05 00:21:16;;;;;;;6.05;2.50;;;18.30;99.90;;;;;;5036504;28;20507;-78
2022/08/05 00:23:44;;;;;;;5.32;2.33;;;18.30;99.90;;;;;;5036627;28;20077;-77
2022/08/05 00:26:10;;;;;;;4.35;2.00;;;18.30;99.90;;;;;;5036583;28;20159;-77
2022/08/05 00:28:36;;;;;;;5.20;2.30;;;18.30;99.90;;;;;;5036167;28;20132;-78
2022/08/05 00:31:03;;;;;;;8.48;2.65;;;18.30;99.90;;;;;;5035041;28;20445;-77
2022/08/05 00:33:29;;;;;;;5.90;2.35;;;18.20;99.90;;;;;;5036508;28;20037;-77
2022/08/05 00:35:55;;;;;;;6.82;2.97;;;18.20;99.90;;;;;;5036479;28;20056;-77
2022/08/05 00:38:20;;;;;;;6.28;3.13;;;18.20;99.90;;;;;;5035375;28;20392;-77
2022/08/05 00:40:49;;;;;;;4.57;2.38;;;18.20;99.90;;;;;;5036453;28;20493;-77
2022/08/05 00:43:15;;;;;;;5.15;2.60;;;18.20;99.90;;;;;;5035039;28;20056;-77
2022/08/05 00:45:42;;;;;;;6.55;2.72;;;18.20;99.90;;;;;;5035415;28;20488;-77
2022/08/05 00:48:10;;;;;;;6.45;2.42;;;18.20;99.90;;;;;;5036180;28;20128;-77
2022/08/05 00:50:36;;;;;;;6.32;2.38;;;18.20;99.90;;;;;;5036033;28;20041;-77
2022/08/05 00:53:02;;;;;;;5.18;2.17;;;18.20;99.90;;;;;;5036125;28;20041;-77
2022/08/05 00:55:28;;;;;;;7.68;2.92;;;18.20;99.90;;;;;;5034820;28;20064;-77
2022/08/05 00:57:53;;;;;;;9.30;2.63;;;18.20;99.90;;;;;;5034719;28;20049;-77
2022/08/05 01:00:19;;;;;;;6.32;2.70;;;18.20;99.90;;;;;;5034551;28;20037;-77
2022/08/05 01:02:45;;;;;;;6.50;2.90;;;18.30;99.90;;;;;;5035784;28;20088;-77
2022/08/05 01:05:11;;;;;;;4.07;2.05;;;18.30;99.90;;;;;;5034808;28;20132;-77
2022/08/05 01:07:37;;;;;;;6.80;2.30;;;18.30;99.90;;;;;;5034352;28;20072;-77
2022/08/05 01:10:04;;;;;;;5.40;2.53;;;18.30;99.90;;;;;;5035849;28;20061;-77
2022/08/05 01:12:30;;;;;;;4.57;2.53;;;18.30;99.90;;;;;;5035056;28;20068;-77
2022/08/05 01:15:05;;;;;;;3.25;2.15;;;18.30;99.90;;;;;;5034570;28;20111;-77
2022/08/05 01:17:44;;;;;;;5.43;2.15;;;18.30;99.90;;;;;;5033426;28;20052;-77
2022/08/05 01:20:45;;;;;;;3.47;1.95;;;18.30;99.90;;;;;;5034340;28;20465;-77
2022/08/05 01:23:32;;;;;;;4.47;2.45;;;18.30;99.90;;;;;;5035630;28;20037;-77
2022/08/05 01:26:20;;;;;;;9.13;2.10;;;18.30;99.90;;;;;;5035559;28;20041;-77
2022/08/05 01:29:07;;;;;;;3.92;1.70;;;18.30;99.90;;;;;;5035456;28;20049;-77
2022/08/05 01:31:51;;;;;;;3.13;1.70;;;18.30;99.90;;;;;;5034019;28;20140;-77
2022/08/05 01:34:44;;;;;;;4.78;2.00;;;18.30;99.90;;;;;;5034043;28;20049;-77
2022/08/05 01:37:31;;;;;;;3.63;2.17;;;18.30;99.90;;;;;;5034123;28;20050;-77
2022/08/05 01:39:57;;;;;;;6.97;1.80;;;18.20;99.90;;;;;;5033890;28;20045;-77
2022/08/05 01:42:25;;;;;;;3.00;1.65;;;18.10;99.90;;;;;;5035095;28;20064;-77
2022/08/05 01:44:54;;;;;;;5.38;2.25;;;18.20;99.90;;;;;;5035163;28;20048;-77
2022/08/05 01:47:22;;;;;;;4.22;1.77;;;18.20;99.90;;;;;;5035051;28;20085;-77
2022/08/05 01:49:51;;;;;;;3.03;1.70;;;18.20;99.90;;;;;;5035008;28;20060;-77
2022/08/05 01:52:18;;;;;;;2.92;1.60;;;18.20;99.90;;;;;;5033625;28;20481;-77
2022/08/05 01:55:00;;;;;;;3.58;1.55;;;18.20;99.90;;;;;;5034988;28;20103;-77
2022/08/05 01:57:31;;;;;;;3.33;1.70;;;18.20;99.90;;;;;;5034859;28;20560;-77
2022/08/05 02:00:03;;;;;;;2.90;1.52;;;18.20;99.90;;;;;;5033618;28;20049;-77
2022/08/05 02:02:31;;;;;;;4.10;1.60;;;18.10;99.90;;;;;;5034949;28;20587;-77
2022/08/05 02:05:07;;;;;;;4.28;1.85;;;18.10;99.90;;;;;;5033617;28;20046;-77
2022/08/05 02:07:34;;;;;;;3.53;1.70;;;18.10;99.90;;;;;;5034762;28;20099;-77
2022/08/05 02:10:00;;;;;;;5.45;1.55;;;18.00;99.90;;;;;;5034626;28;20049;-77
2022/08/05 02:12:29;;;;;;;3.95;1.70;;;17.90;99.90;;;;;;5034612;28;20049;-77
2022/08/05 02:15:08;;;;;;;3.33;1.60;;;18.00;99.90;;;;;;5033259;28;20077;-77
2022/08/05 02:18:09;;;;;;;3.53;1.52;;;17.90;99.90;;;;;;5034749;28;20132;-77
2022/08/05 02:21:18;;;;;;;4.45;1.50;;;17.90;99.90;;;;;;5030497;28;20046;-77
2022/08/05 02:23:47;;;;;;;2.92;1.70;;;17.80;99.90;;;;;;5005109;28;20061;-77
2022/08/05 02:26:18;;;;;;;3.55;1.90;;;17.80;99.90;;;;;;5034389;28;20045;-77
2022/08/05 02:28:46;;;;;;;3.28;1.60;;;17.80;99.90;;;;;;5032391;28;20132;-77
2022/08/05 02:31:21;;;;;;;4.32;1.60;;;17.90;99.90;;;;;;5033063;28;20481;-77
2022/08/05 02:33:56;;;;;;;4.18;1.75;;;17.80;99.90;;;;;;5032859;28;20061;-77
2022/08/05 02:36:24;;;;;;;4.30;1.73;;;17.80;99.90;;;;;;5033121;28;20052;-77
2022/08/05 02:38:51;;;;;;;2.65;1.63;;;17.80;99.90;;;;;;5034187;28;20045;-77
2022/08/05 02:41:19;;;;;;;3.45;1.70;;;17.80;99.90;;;;;;5034188;28;20083;-77
2022/08/05 02:43:46;;;;;;;3.03;1.40;;;17.70;99.90;;;;;;5034061;28;20045;-77
2022/08/05 02:46:15;;;;;;;2.50;1.50;;;17.70;99.90;;;;;;5033986;28;20370;-77
2022/08/05 02:48:42;;;;;;;2.63;1.60;;;17.70;99.90;;;;;;5033779;28;20050;-77
2022/08/05 02:51:08;;;;;;;5.63;1.70;;;17.70;99.90;;;;;;5032588;28;20045;-77
2022/08/05 02:53:36;;;;;;;4.65;1.60;;;17.70;99.90;;;;;;5033917;28;20088;-77
2022/08/05 02:56:03;;;;;;;4.13;1.60;;;17.70;99.90;;;;;;5033930;28;20046;-77
2022/08/05 02:58:29;;;;;;;3.33;1.52;;;17.60;99.90;;;;;;5032611;28;20065;-77
2022/08/05 03:00:57;;;;;;;4.25;1.63;;;17.70;99.90;;;;;;5032656;28;20046;-77
2022/08/05 03:03:25;;;;;;;2.90;1.73;;;17.70;99.90;;;;;;5032418;28;20060;-77
2022/08/05 03:05:51;;;;;;;4.38;1.48;;;17.70;99.90;;;;;;5033656;28;20037;-77
2022/08/05 03:08:17;;;;;;;4.40;1.60;;;17.70;99.90;;;;;;5033729;28;20051;-77
2022/08/05 03:10:44;;;;;;;3.10;1.35;;;17.60;99.90;;;;;;5032449;28;20405;-77
2022/08/05 03:13:14;;;;;;;3.10;1.52;;;17.60;99.90;;;;;;5033422;28;20091;-77
2022/08/05 03:15:44;;;;;;;3.95;1.40;;;17.70;99.90;;;;;;5032556;28;20063;-77
2022/08/05 03:18:10;;;;;;;3.67;1.40;;;17.70;99.90;;;;;;5032308;28;20473;-77
2022/08/05 03:20:36;;;;;;;4.35;1.58;;;17.60;99.90;;;;;;5033704;28;20048;-77
2022/08/05 03:23:05;;;;;;;3.80;1.60;;;17.60;99.90;;;;;;5032591;28;20053;-77
2022/08/05 03:25:33;;;;;;;4.35;1.52;;;17.60;99.90;;;;;;5032337;28;20124;-77
2022/08/05 03:28:00;;;;;;;4.28;2.05;;;17.60;99.90;;;;;;5032251;28;20053;-77
2022/08/05 03:30:27;;;;;;;3.20;1.45;;;17.60;99.90;;;;;;5033612;28;20128;-77
2022/08/05 03:32:53;;;;;;;3.30;1.40;;;17.60;99.90;;;;;;5032394;28;20103;-77
2022/08/05 03:35:20;;;;;;;3.53;1.55;;;17.60;99.90;;;;;;5033466;28;20034;-77
2022/08/05 03:37:46;;;;;;;4.63;1.70;;;17.60;99.90;;;;;;5032213;28;20056;-77
2022/08/05 03:40:12;;;;;;;4.40;1.52;;;17.60;99.90;;;;;;5033821;28;20108;-77
2022/08/05 03:42:39;;;;;;;4.05;1.55;;;17.60;99.90;;;;;;5035960;28;20042;-77
2022/08/05 03:45:06;;;;;;;3.88;1.52;;;17.60;99.90;;;;;;5037200;28;20475;-77
2022/08/05 03:47:31;;;;;;;3.10;1.48;;;17.70;99.90;;;;;;5037155;28;20496;-77
2022/08/05 03:49:57;;;;;;;5.50;1.73;;;17.70;99.90;;;;;;5037319;28;20052;-77
2022/08/05 03:52:28;;;;;;;3.47;1.33;;;17.60;99.90;;;;;;5036043;28;20049;-77
2022/08/05 03:55:01;;;;;;;4.07;1.65;;;17.60;99.90;;;;;;5037078;28;20072;-77
2022/08/05 03:57:32;;;;;;;2.85;1.55;;;17.50;99.90;;;;;;5035513;28;20038;-77
2022/08/05 04:00:09;;;;;;;2.65;1.38;;;17.50;99.90;;;;;;5036820;28;20447;-77
2022/08/05 04:02:37;;;;;;;3.22;1.48;;;17.50;99.90;;;;;;5036506;28;20546;-77
2022/08/05 04:05:05;;;;;;;3.45;1.65;;;17.50;99.90;;;;;;5034831;28;20049;-77
2022/08/05 04:07:33;;;;;;;4.78;1.80;;;17.40;99.90;;;;;;5035759;28;20045;-77
2022/08/05 04:09:59;;;;;;;4.95;1.70;;;17.30;99.90;;;;;;5036865;28;20083;-77
2022/08/05 04:12:25;;;;;;;5.20;1.58;;;17.30;99.90;;;;;;5036966;28;20060;-77
2022/08/05 04:14:51;;;;;;;4.53;2.17;;;17.20;99.90;;;;;;5035651;28;20049;-77
2022/08/05 04:17:16;;;;;;;2.97;1.55;;;17.10;99.90;;;;;;5036888;28;20045;-77
2022/08/05 04:19:47;;;;;;;3.35;1.48;;;17.10;99.90;;;;;;5035369;28;20065;-77
2022/08/05 04:22:13;;;;;;;5.65;1.75;;;17.10;99.90;;;;;;5035194;28;20132;-77
2022/08/05 04:24:48;;;;;;;4.65;1.60;;;17.00;99.90;;;;;;5036397;28;20052;-77
2022/08/05 04:27:14;;;;;;;4.00;1.50;;;17.00;99.90;;;;;;5036430;28;20045;-77
2022/08/05 04:29:40;;;;;;;6.13;1.80;;;17.00;99.90;;;;;;5035072;28;20064;-77
2022/08/05 04:32:07;;;;;;;5.03;1.80;;;17.00;99.90;;;;;;5034956;28;20099;-77
2022/08/05 04:34:32;;;;;;;3.88;1.70;;;17.00;99.90;;;;;;5035239;28;20195;-77
2022/08/05 04:36:58;;;;;;;2.53;1.60;;;16.90;99.90;;;;;;5035277;28;20553;-77
2022/08/05 04:39:24;;;;;;;3.50;1.63;;;16.90;99.90;;;;;;5036098;28;20401;-77
2022/08/05 04:41:49;;;;;;;2.78;1.77;;;16.90;99.90;;;;;;5034937;28;20125;-77
2022/08/05 04:44:15;;;;;;;4.82;1.70;;;17.00;99.90;;;;;;5036207;28;20049;-77
2022/08/05 04:46:41;;;;;;;5.57;2.40;;;16.90;99.90;;;;;;5035068;28;20048;-77
2022/08/05 04:49:07;;;;;;;5.65;1.67;;;17.00;99.90;;;;;;5034576;28;20041;-77
2022/08/05 04:51:32;;;;;;;2.88;1.50;;;16.90;99.90;;;;;;5035866;28;20543;-77
2022/08/05 04:53:58;;;;;;;4.30;1.83;;;16.90;99.90;;;;;;5034861;28;20079;-77
2022/08/05 04:56:24;;;;;;;2.13;1.48;;;16.90;99.90;;;;;;5034776;28;20538;-77
2022/08/05 04:58:50;;;;;;;3.95;1.65;;;16.90;99.90;;;;;;5036052;28;20096;-77
2022/08/05 05:01:16;;;;;;;5.57;1.98;;;16.90;99.90;;;;;;5035815;28;20046;-77
2022/08/05 05:03:41;;;;;;;2.35;1.42;;;16.90;99.90;;;;;;5034557;28;20099;-77
2022/08/05 05:06:11;;;;;;;4.85;1.70;;;17.00;99.90;;;;;;5034572;28;20382;-77
2022/08/05 05:08:38;;;;;;;3.83;1.95;;;17.00;99.90;;;;;;5035558;28;20056;-77
2022/08/05 05:11:04;;;;;;;3.58;1.75;;;16.90;99.90;;;;;;5034575;28;20064;-77
2022/08/05 05:13:29;;;;;;;3.42;1.80;;;16.90;99.90;;;;;;5035547;28;20065;-77
2022/08/05 05:15:55;;;;;;;5.63;1.80;;;16.90;99.90;;;;;;5035381;28;20515;-77
2022/08/05 05:18:21;;;;;;;3.92;2.00;;;16.90;99.90;;;;;;5035473;28;20124;-77
2022/08/05 05:20:47;;;;;;;3.58;1.80;;;16.90;99.90;;;;;;5034385;28;20136;-77
2022/08/05 05:23:13;;;;;;;4.70;1.75;;;16.90;99.90;;;;;;5034098;28;20049;-77
2022/08/05 05:25:43;;;;;;;3.83;1.70;;;16.90;99.90;;;;;;5034134;28;20129;-77
2022/08/05 05:28:09;;;;;;;3.40;1.50;;;17.00;99.90;;;;;;5033879;28;20064;-77
2022/08/05 05:30:36;;;;;;;3.50;1.60;;;17.00;99.90;;;;;;5033978;28;20476;-77
2022/08/05 05:33:03;;;;;;;3.97;1.98;;;17.10;99.90;;;;;;5033912;28;20050;-77
2022/08/05 05:35:32;;;;;;;5.75;1.83;;;17.10;99.90;;;;;;5035367;28;20073;-77
2022/08/05 05:37:59;;;;;;;3.72;1.65;;;17.20;99.90;;;;;;5033769;28;20106;-77
2022/08/05 05:40:26;;;;;;;4.05;1.80;;;17.20;99.90;;;;;;5033984;28;20426;-77
2022/08/05 05:42:52;;;;;;;6.35;1.92;;;17.20;99.90;;;;;;5035157;28;20080;-76
2022/08/05 05:45:19;;;;;;;3.88;1.60;;;17.20;99.90;;;;;;5034823;28;20404;-77
2022/08/05 05:47:45;;;;;;;4.13;1.98;;;17.20;99.90;;;;;;5044410;28;20521;-76
2022/08/05 05:50:16;;;;;;;5.82;2.20;;;17.40;99.90;;;;;;5035191;28;20049;-77
2022/08/05 05:52:42;;;;;;;3.83;1.80;;;17.50;99.90;;;;;;5033639;28;20069;-77
2022/08/05 05:55:10;;;;;;;3.38;1.55;;;17.70;99.90;;;;;;5034611;28;20084;-77
2022/08/05 05:57:36;;;;;;;4.57;1.48;;;17.90;99.90;;;;;;5034633;28;20037;-77
2022/08/05 06:00:11;;;;;;;4.05;1.50;;;18.10;99.90;;;;;;5034675;28;20049;-76
2022/08/05 06:02:36;;;;;;;3.65;1.40;;;18.30;99.90;;;;;;5033824;28;20041;-76
2022/08/05 06:05:02;;;;;;;3.35;1.50;;;18.60;99.90;;;;;;5034653;28;20045;-76
2022/08/05 06:07:28;;;;;;;3.88;1.50;;;18.90;99.90;;;;;;5032908;28;20444;-76
2022/08/05 06:09:54;;;;;;;4.80;1.63;;;19.20;99.90;;;;;;5032952;28;20500;-76
2022/08/05 06:12:19;;;;;;;3.90;1.48;;;19.30;99.90;;;;;;5032873;28;20038;-76
2022/08/05 06:14:45;;;;;;;2.83;1.60;;;19.40;99.90;;;;;;5034464;28;20052;-76
2022/08/05 06:17:11;;;;;;;7.03;1.70;;;19.40;99.90;;;;;;5034423;28;20046;-76
2022/08/05 06:19:37;;;;;;;5.20;1.48;;;19.30;99.90;;;;;;5034330;28;20037;-77
2022/08/05 06:22:03;;;;;;;4.32;1.52;;;19.20;99.90;;;;;;5033073;28;20041;-78
2022/08/05 06:24:30;;;;;;;3.72;1.33;;;19.10;99.90;;;;;;5034138;28;20103;-77
2022/08/05 06:26:56;;;;;;;5.22;1.50;;;19.10;99.90;;;;;;5033793;28;20523;-77
2022/08/05 06:29:22;;;;;;;7.20;1.75;;;19.10;99.90;;;;;;5032419;28;20057;-77
2022/08/05 06:31:47;;;;;;;4.07;1.40;;;19.00;99.90;;;;;;5034319;28;20033;-77
2022/08/05 06:34:13;;;;;;;4.35;1.38;;;18.90;99.90;;;;;;5033940;28;20401;-77
2022/08/05 06:36:38;;;;;;;4.38;1.38;;;18.90;99.90;;;;;;5032700;28;20041;-77
2022/08/05 06:39:04;;;;;;;3.92;1.30;;;19.10;99.90;;;;;;5033951;28;20049;-85
2022/08/05 06:41:30;;;;;;;3.40;1.33;;;19.30;99.90;;;;;;5033860;28;20408;-78
2022/08/05 06:43:55;;;;;;;3.88;1.55;;;19.70;99.90;;;;;;5033792;28;20076;-77
2022/08/05 06:46:21;;;;;;;4.88;1.17;;;20.00;99.90;;;;;;5034078;28;20048;-77
2022/08/05 06:48:47;;;;;;;2.90;1.10;;;20.10;99.90;;;;;;5033780;28;20049;-77
2022/08/05 06:51:12;;;;;;;3.03;1.13;;;20.20;99.90;;;;;;5032762;28;20504;-77
2022/08/05 06:53:38;;;;;;;2.60;1.00;;;20.20;99.90;;;;;;5032448;28;20041;-77
2022/08/05 06:56:04;;;;;;;5.07;1.15;;;20.10;99.90;;;;;;5032331;28;20133;-77
2022/08/05 06:58:31;;;;;;;3.30;1.20;;;20.10;99.90;;;;;;5032605;28;20439;-77
2022/08/05 07:01:00;;;;;;;2.38;1.00;;;20.00;99.90;;;;;;5033885;28;20088;-77
2022/08/05 07:03:27;;;;;;;4.22;1.20;;;19.80;99.90;;;;;;5033714;28;20395;-77
2022/08/05 07:05:53;;;;;;;5.15;1.10;;;19.60;99.90;;;;;;5032321;28;20033;-77
2022/08/05 07:08:21;;;;;;;4.65;0.90;;;19.40;99.90;;;;;;5033657;28;20046;-77
2022/08/05 07:10:47;;;;;;;5.53;1.27;;;19.40;99.90;;;;;;5032330;28;20098;-77
2022/08/05 07:18:41;;;;;;;6.32;0.90;;;20.10;99.90;;;;;;5033357;28;20050;-78
2022/08/05 07:21:06;;;;;;;3.33;0.90;;;20.40;99.90;;;;;;5032364;28;20064;-77
2022/08/05 07:23:32;;;;;;;4.57;0.90;;;20.50;99.90;;;;;;5033764;28;20056;-77
2022/08/05 07:25:58;;;;;;;18.63;2.53;;;20.70;99.90;;;;;;5032131;28;20045;-78
2022/08/05 07:28:24;;;;;;;5.60;0.80;;;20.90;99.90;;;;;;5032012;28;20068;-78
2022/08/05 07:30:49;;;;;;;3.97;0.98;;;21.10;99.90;;;;;;5033543;28;20045;-77
2022/08/05 07:33:15;;;;;;;4.20;0.57;;;21.20;99.90;;;;;;5032048;28;20554;-78
2022/08/05 07:35:41;;;;;;;2.10;0.80;;;21.30;99.90;;;;;;5032230;28;20124;-77
2022/08/05 07:38:06;;;;;;;5.07;1.52;;;21.50;99.90;;;;;;5031997;28;20084;-77
2022/08/05 07:40:32;;;;;;;5.07;1.13;;;21.50;99.90;;;;;;5033465;28;20049;-77
2022/08/05 07:42:58;;;;;;;2.90;0.98;;;21.60;99.90;;;;;;5031953;28;20048;-78
2022/08/05 07:45:23;;;;;;;3.10;0.90;;;21.80;99.90;;;;;;5031913;28;20037;-77
2022/08/05 07:47:49;;;;;;;2.72;0.93;;;21.90;99.90;;;;;;5031869;28;20046;-77
2022/08/05 07:50:15;;;;;;;2.72;0.70;;;22.00;99.90;;;;;;5031830;28;20049;-78
2022/08/05 07:52:42;;;;;;;3.38;0.82;;;22.20;99.90;;;;;;5033317;28;20041;-77
2022/08/05 07:55:08;;;;;;;2.50;0.77;;;22.10;99.90;;;;;;5033360;28;20045;-78
2022/08/05 07:57:35;;;;;;;2.25;0.90;;;22.20;99.90;;;;;;5032000;28;20049;-77
2022/08/05 08:00:02;;;;;;;1.67;0.60;;;22.20;99.90;;;;;;5032038;28;20057;-79
2022/08/05 08:02:28;;;;;;;3.90;0.82;;;22.10;99.90;;;;;;5031895;28;20041;-77
2022/08/05 08:04:55;;;;;;;3.95;0.80;;;22.10;99.90;;;;;;5033109;28;20049;-77
2022/08/05 08:07:21;;;;;;;2.90;0.63;;;22.10;99.90;;;;;;5031964;28;20088;-78
2022/08/05 08:09:47;;;;;;;2.58;0.52;;;22.10;99.90;;;;;;5031573;28;20049;-78
2022/08/05 08:12:13;;;;;;;3.22;0.70;;;22.10;99.90;;;;;;5031937;28;20038;-78
2022/08/05 08:14:40;;;;;;;1.67;0.90;;;22.20;99.90;;;;;;5032772;28;20041;-77
2022/08/05 08:17:09;;;;;;;2.67;0.60;;;22.00;99.90;;;;;;5031834;28;20045;-77
2022/08/05 08:19:44;;;;;;;6.03;0.80;;;21.90;99.90;;;;;;5031542;28;20397;-79
2022/08/05 08:22:11;;;;;;;2.25;0.90;;;21.90;99.90;;;;;;5031642;28;20054;-78
2022/08/05 08:24:36;;;;;;;2.67;0.77;;;22.00;99.90;;;;;;5031549;28;20092;-78
2022/08/05 08:27:03;;;;;;;3.90;0.75;;;22.00;99.90;;;;;;5034524;28;20060;-77
2022/08/05 08:29:29;;;;;;;5.03;0.80;;;21.90;99.90;;;;;;5034830;28;20136;-78
2022/08/05 08:31:55;;;;;;;2.83;0.80;;;22.00;99.90;;;;;;5035007;28;20129;-78
2022/08/05 08:34:24;;;;;;;2.50;0.63;;;22.10;99.90;;;;;;5036520;28;20045;-78
2022/08/05 08:36:50;;;;;;;3.55;0.68;;;22.10;99.90;;;;;;5036368;28;20045;-78
2022/08/05 08:39:17;;;;;;;2.03;0.60;;;22.20;99.90;;;;;;5036308;28;20056;-78
2022/08/05 08:41:46;;;;;;;1.48;0.57;;;22.40;99.90;;;;;;5034854;28;20053;-78
2022/08/05 08:44:17;;;;;;;3.35;0.70;;;22.40;99.90;;;;;;5036018;28;20045;-78
2022/08/05 08:46:43;;;;;;;4.70;0.50;;;22.40;99.90;;;;;;5034798;28;20139;-78
2022/08/05 08:49:13;;;;;;;3.10;0.73;;;22.50;99.90;;;;;;5034689;28;20057;-77
2022/08/05 08:51:40;;;;;;;1.65;0.70;;;22.50;99.90;;;;;;5034980;28;20072;-78
2022/08/05 08:54:07;;;;;;;1.35;0.43;;;22.50;99.90;;;;;;5036276;28;20045;-77
2022/08/05 08:56:33;;;;;;;1.05;0.38;;;22.50;99.90;;;;;;5036137;28;20069;-78
2022/08/05 08:59:00;;;;;;;1.63;0.50;;;22.60;99.90;;;;;;5035987;28;20052;-78
2022/08/05 09:01:26;;;;;;;1.58;0.40;;;22.60;99.90;;;;;;5035752;28;20120;-78
2022/08/05 09:03:55;;;;;;;4.47;0.60;;;22.60;99.90;;;;;;5034613;28;20044;-77
2022/08/05 09:06:21;;;;;;;1.63;0.40;;;22.60;99.90;;;;;;5034449;28;20049;-78
2022/08/05 09:08:47;;;;;;;4.30;0.52;;;22.40;99.90;;;;;;5035741;28;20084;-78
2022/08/05 09:11:13;;;;;;;2.58;0.43;;;22.40;99.90;;;;;;5034614;28;20072;-78
2022/08/05 09:13:41;;;;;;;5.30;0.75;;;22.40;99.90;;;;;;5035649;28;20037;-78
2022/08/05 09:16:08;;;;;;;3.10;0.40;;;22.40;99.90;;;;;;5035727;28;20041;-78
2022/08/05 09:18:35;;;;;;;1.65;0.70;;;22.60;99.90;;;;;;5035727;28;20033;-78
2022/08/05 09:21:01;;;;;;;3.08;0.52;;;22.70;99.90;;;;;;5035610;28;20041;-78
2022/08/05 09:23:27;;;;;;;2.95;0.47;;;22.90;99.90;;;;;;5035604;28;20175;-78
2022/08/05 09:26:10;;;;;;;2.78;0.43;;;22.70;99.90;;;;;;5034093;28;20540;-78
2022/08/05 09:28:39;;;;;;;2.63;0.77;;;22.80;99.90;;;;;;5033910;28;20053;-79
2022/08/05 09:31:07;;;;;;;4.18;0.80;;;22.70;99.90;;;;;;5035145;28;20492;-78
2022/08/05 09:33:48;;;;;;;1.88;0.40;;;22.70;99.90;;;;;;5034040;28;20075;-79
2022/08/05 09:36:14;;;;;;;1.38;0.40;;;22.90;99.90;;;;;;5034092;28;20120;-78
2022/08/05 09:38:57;;;;;;;4.13;1.02;;;22.70;99.90;;;;;;5033976;28;20049;-78
2022/08/05 09:41:24;;;;;;;4.45;0.50;;;22.70;99.90;;;;;;5033812;28;20049;-78
2022/08/05 09:43:50;;;;;;;2.05;0.40;;;22.80;99.90;;;;;;5033843;28;20507;-78
2022/08/05 09:46:42;;;;;;;2.22;0.30;;;23.00;99.90;;;;;;5034857;28;20080;-78
2022/08/05 09:49:22;;;;;;;2.05;0.50;;;23.00;99.90;;;;;;5032843;28;20111;-78
2022/08/05 09:51:47;;;;;;;1.58;0.40;;;23.00;99.90;;;;;;5035109;28;20076;-78
2022/08/05 09:54:13;;;;;;;2.40;0.40;;;23.10;99.90;;;;;;5033726;28;20073;-78
2022/08/05 09:56:45;;;;;;;1.10;0.22;;;23.30;99.90;;;;;;5033527;28;20493;-78
2022/08/05 09:59:13;;;;;;;1.93;0.50;;;23.30;99.90;;;;;;5033533;28;20048;-78
2022/08/05 10:01:41;;;;;;;0.73;0.20;;;23.30;99.90;;;;;;5033539;28;20046;-78
2022/08/05 10:04:12;;;;;;;1.77;0.22;;;23.20;99.90;;;;;;5033584;28;20045;-78
2022/08/05 10:06:40;;;;;;;3.20;0.32;;;23.10;99.90;;;;;;5033298;28;20044;-78
2022/08/05 10:09:17;;;;;;;1.77;0.38;;;23.20;99.90;;;;;;5033166;28;20053;-78
2022/08/05 10:11:44;;;;;;;3.50;0.30;;;23.40;99.90;;;;;;5033350;28;20049;-78
2022/08/05 10:14:23;;;;;;;2.58;0.50;;;23.40;99.90;;;;;;5033354;28;20068;-78
2022/08/05 10:16:49;;;;;;;3.83;0.45;;;23.40;99.90;;;;;;5033285;28;20049;-78
2022/08/05 10:19:16;;;;;;;1.83;0.38;;;23.40;99.90;;;;;;5034260;28;20053;-78
2022/08/05 10:21:42;;;;;;;2.30;0.40;;;23.40;99.90;;;;;;5033181;28;20125;-78
2022/08/05 10:24:11;;;;;;;1.73;0.20;;;23.20;99.90;;;;;;5034157;28;20056;-78
2022/08/05 10:26:39;;;;;;;1.40;0.32;;;23.20;99.90;;;;;;5034039;28;20045;-77
2022/08/05 10:29:07;;;;;;;4.25;0.43;;;23.30;99.90;;;;;;5032219;28;20394;-79
2022/08/05 10:31:33;;;;;;;2.78;0.40;;;23.10;99.90;;;;;;5034065;28;20374;-79
2022/08/05 10:33:59;;;;;;;3.22;0.50;;;23.10;99.90;;;;;;5033025;28;20485;-79
2022/08/05 10:36:25;;;;;;;2.53;0.60;;;23.20;99.90;;;;;;5033940;28;20512;-78
2022/08/05 10:38:59;;;;;;;6.07;0.47;;;23.20;99.90;;;;;;5034163;28;20048;-78
2022/08/05 10:41:31;;;;;;;3.28;0.40;;;23.40;99.90;;;;;;5032604;28;20049;-78
2022/08/05 10:44:00;;;;;;;;;;;23.40;99.90;;;;;;5034488;28;20042;-79
2022/08/05 10:46:43;;;;;;;2.65;0.40;;;23.50;99.90;;;;;;5032998;28;19932;-78
2022/08/05 10:49:09;;;;;;;2.38;0.47;;;23.50;99.90;;;;;;5032554;28;20045;-78
2022/08/05 10:52:01;;;;;;;2.25;0.40;;;23.30;99.90;;;;;;5032415;28;20111;-79
2022/08/05 10:55:00;;;;;;;2.83;0.60;;;23.30;99.90;;;;;;5032779;28;20079;-78
2022/08/05 10:57:27;;;;;;;4.38;0.50;;;23.20;99.90;;;;;;5033744;28;20511;-78
2022/08/05 11:00:15;;;;;;;0.77;0.28;;;23.50;99.90;;;;;;5032632;28;20115;-78
2022/08/05 11:03:02;;;;;;;1.85;0.65;;;23.50;99.90;;;;;;5034248;28;20092;-78
2022/08/05 11:05:28;;;;;;;3.00;0.45;;;23.60;99.90;;;;;;5033732;28;20116;-78
2022/08/05 11:07:59;;;;;;;2.83;0.40;;;23.70;99.90;;;;;;5033690;28;20041;-78
2022/08/05 11:10:26;;;;;;;2.65;0.30;;;23.60;99.90;;;;;;5033571;28;20061;-78
2022/08/05 11:12:52;;;;;;;6.18;0.73;;;23.60;99.90;;;;;;5032595;28;20041;-78
2022/08/05 11:15:26;;;;;;;1.75;0.30;;;23.50;99.90;;;;;;5033703;28;20060;-78
2022/08/05 11:18:11;;;;;;;1.70;0.30;;;23.20;99.90;;;;;;5032460;28;20045;-78
2022/08/05 11:20:37;;;;;;;2.38;0.38;;;23.20;99.90;;;;;;5033495;28;20085;-78
2022/08/05 11:23:30;;;;;;;4.22;0.40;;;23.30;99.90;;;;;;5033649;28;20073;-78
2022/08/05 11:26:10;;;;;;;3.00;0.55;;;23.30;99.90;;;;;;5033615;28;20053;-78
2022/08/05 11:28:42;;;;;;;4.57;0.57;;;23.50;99.90;;;;;;5031757;28;20065;-78
2022/08/05 11:31:07;;;;;;;1.77;0.20;;;23.20;99.90;;;;;;5033261;28;20489;-78
2022/08/05 11:33:51;;;;;;;2.50;0.40;;;23.10;99.90;;;;;;5032027;28;20052;-78
2022/08/05 11:36:19;;;;;;;4.78;0.50;;;23.10;99.90;;;;;;5031988;28;20053;-78
2022/08/05 11:38:46;;;;;;;2.60;0.30;;;23.40;99.90;;;;;;5032170;28;20049;-79
2022/08/05 11:41:23;;;;;;;1.77;0.32;;;23.50;99.90;;;;;;5033296;28;20054;-79
2022/08/05 11:44:00;;;;;;;1.90;0.30;;;23.40;99.90;;;;;;5032456;28;20053;-78
2022/08/05 11:46:34;;;;;;;7.25;0.38;;;23.30;99.90;;;;;;5033416;28;20041;-78
2022/08/05 11:49:01;;;;;;;1.65;0.43;;;23.30;99.90;;;;;;5033266;28;20077;-77
2022/08/05 11:51:30;;;;;;;2.58;0.50;;;23.40;99.90;;;;;;5033227;28;20041;-78
2022/08/05 11:53:56;;;;;;;2.88;0.30;;;23.60;99.90;;;;;;5032920;28;20547;-78
2022/08/05 11:56:22;;;;;;;3.80;0.52;;;23.80;99.90;;;;;;5032021;28;20472;-78
2022/08/05 11:58:49;;;;;;;1.88;0.40;;;23.70;99.90;;;;;;5031844;28;20508;-78
2022/08/05 12:01:18;;;;;;;3.28;0.57;;;23.50;99.90;;;;;;5034820;28;20055;-78
2022/08/05 12:03:46;;;;;;;3.63;0.70;;;23.30;99.90;;;;;;5037102;28;20041;-78
2022/08/05 12:06:14;;;;;;;1.15;0.20;;;23.10;99.90;;;;;;5037070;28;20056;-79
2022/08/05 12:08:51;;;;;;;1.50;0.32;;;23.00;99.90;;;;;;5035553;28;20137;-78
2022/08/05 12:11:18;;;;;;;2.88;0.60;;;22.80;99.90;;;;;;5035733;28;20099;-78
2022/08/05 12:14:04;;;;;;;1.40;0.50;;;22.50;99.90;;;;;;5035649;28;20061;-78
2022/08/05 12:16:34;;;;;;;2.08;0.50;;;22.30;99.90;;;;;;5035486;28;20045;-78
2022/08/05 12:19:00;;;;;;;2.92;0.50;;;22.20;99.90;;;;;;5036611;28;20045;-78
2022/08/05 12:21:29;;;;;;;2.58;0.50;;;22.00;99.90;;;;;;5035287;28;20453;-78
2022/08/05 12:24:01;;;;;;;1.80;0.20;;;21.80;99.90;;;;;;5036732;28;20112;-78
2022/08/05 12:26:40;;;;;;;2.30;0.47;;;21.80;99.90;;;;;;5036454;28;20042;-78
2022/08/05 12:29:14;;;;;;;2.92;0.30;;;22.00;99.90;;;;;;5035021;28;20069;-78
2022/08/05 12:31:43;;;;;;;2.05;0.40;;;22.20;99.90;;;;;;5035078;28;20064;-78
2022/08/05 12:34:09;;;;;;;1.30;0.40;;;22.20;99.90;;;;;;5035071;28;20057;-78
2022/08/05 12:36:36;;;;;;;2.45;0.40;;;22.00;99.90;;;;;;5036331;28;20492;-78
2022/08/05 12:39:04;;;;;;;5.60;0.60;;;21.70;99.90;;;;;;5035566;28;20046;-78
2022/08/05 12:41:31;;;;;;;1.63;0.30;;;21.70;99.90;;;;;;5036245;28;20045;-78
2022/08/05 12:44:04;;;;;;;2.55;0.40;;;21.60;99.90;;;;;;5036299;28;20050;-78
2022/08/05 12:46:32;;;;;;;2.85;0.40;;;21.50;99.90;;;;;;5035055;28;20057;-78
2022/08/05 12:49:09;;;;;;;1.40;0.40;;;21.40;99.90;;;;;;5034945;28;20050;-78
2022/08/05 12:51:50;;;;;;;2.72;0.50;;;21.50;99.90;;;;;;5036245;28;20064;-79
2022/08/05 12:54:22;;;;;;;1.42;0.30;;;21.50;99.90;;;;;;5034643;28;20053;-79
2022/08/05 12:56:49;;;;;;;;;;;21.50;99.90;;;;;;5035327;28;20060;-79
2022/08/05 12:59:16;;;;;;;0.85;0.50;;;21.30;99.90;;;;;;5034434;28;19917;-78
2022/08/05 13:01:44;;;;;;;1.50;0.30;;;21.50;99.90;;;;;;5034669;28;20128;-79
2022/08/05 13:04:11;;;;;;;3.50;0.30;;;21.50;99.90;;;;;;5034474;28;20045;-79